Time;durP1;ratioP1;P1;durP2;ratioP2;P2;SDS_P1;SDS_P2;PMS_P1;PMS_P2;Temp;Humidity;BMP_temperature;BMP_pressure;BME280_temperature;BME280_humidity;BME280_pressure;Samples;Min_cycle;Max_cycle;Signal;HPM_P1;HPM_P2
2021/09/11 00:00:31;;;;;;;;;23.75;23.25;;;;;20.07;50.94;98604.38;4884032;28;103848;-79
2021/09/11 00:02:58;;;;;;;;;24.50;24.50;;;;;20.03;50.31;98604.06;4850398;28;104166;-79
2021/09/11 00:05:26;;;;;;;;;23.50;22.75;;;;;20.01;50.69;98607.06;4884436;28;102428;-79
2021/09/11 00:07:54;;;;;;;;;23.00;22.00;;;;;19.97;51.13;98600.44;4874826;28;102756;-79
2021/09/11 00:10:21;;;;;;;;;28.75;23.75;;;;;19.98;50.46;98601.28;4897579;28;104284;-79
2021/09/11 00:12:49;;;;;;;;;28.00;24.50;;;;;19.96;50.33;98598.78;4885468;28;102370;-79
2021/09/11 00:15:17;;;;;;;;;28.75;27.25;;;;;19.92;50.58;98603.16;4894671;28;102803;-78
2021/09/11 00:17:47;;;;;;;;;27.75;25.25;;;;;19.93;49.87;98601.25;4891627;28;102376;-79
2021/09/11 00:20:14;;;;;;;;;25.00;23.50;;;;;19.91;50.34;98603.41;4887372;28;108950;-79
2021/09/11 00:22:41;;;;;;;;;26.75;26.00;;;;;19.87;49.97;98594.88;4893176;28;102765;-79
2021/09/11 00:25:09;;;;;;;;;27.75;25.75;;;;;19.91;50.08;98592.41;4895515;28;102225;-79
2021/09/11 00:27:36;;;;;;;;;29.00;26.25;;;;;19.88;50.27;98591.03;4879767;28;102690;-79
2021/09/11 00:30:04;;;;;;;;;27.50;26.50;;;;;19.85;49.94;98596.22;4896668;28;103918;-79
2021/09/11 00:32:31;;;;;;;;;27.50;26.25;;;;;19.84;49.86;98594.56;4894676;28;102298;-79
2021/09/11 00:34:59;;;;;;;;;28.00;25.00;;;;;19.83;50.17;98598.41;4885085;28;102476;-79
2021/09/11 00:37:26;;;;;;;;;22.25;22.25;;;;;19.81;49.62;98595.91;4894518;28;102437;-79
2021/09/11 00:39:53;;;;;;;;;26.75;24.00;;;;;19.78;50.03;98584.63;4888061;28;105032;-79
2021/09/11 00:42:20;;;;;;;;;28.25;25.25;;;;;19.79;49.63;98591.78;4879815;28;102757;-79
2021/09/11 00:44:47;;;;;;;;;30.50;28.75;;;;;19.76;49.82;98586.81;4895197;28;102401;-79
2021/09/11 00:47:16;;;;;;;;;27.75;25.75;;;;;19.75;49.35;98585.16;4882744;28;102174;-79
2021/09/11 00:49:43;;;;;;;;;22.50;22.25;;;;;19.73;49.37;98581.81;4882222;28;108977;-79
2021/09/11 00:52:10;;;;;;;;;26.00;25.25;;;;;19.73;49.39;98590.06;4908500;28;102239;-79
2021/09/11 00:54:37;;;;;;;;;28.25;27.50;;;;;19.70;49.51;98587.84;4875944;28;102757;-79
2021/09/11 00:57:04;;;;;;;;;24.50;24.25;;;;;19.70;48.98;98587.84;4892695;28;102639;-79
2021/09/11 00:59:31;;;;;;;;;23.50;22.50;;;;;19.69;49.42;98586.19;4892324;28;104357;-79
2021/09/11 01:01:58;;;;;;;;;23.00;23.00;;;;;19.68;48.77;98579.06;4860227;28;105385;-79
2021/09/11 01:04:28;;;;;;;;;28.00;24.50;;;;;19.65;48.88;98579.56;4856017;28;104585;-79
2021/09/11 01:06:56;;;;;;;;;31.00;25.50;;;;;19.60;49.08;98586.66;4856008;28;104037;-79
2021/09/11 01:09:23;;;;;;;;;28.75;26.25;;;;;19.59;48.94;98582.25;4857873;28;105082;-79
2021/09/11 01:11:51;;;;;;;;;29.00;26.25;;;;;19.59;49.22;98590.47;4877003;28;103921;-79
2021/09/11 01:14:18;;;;;;;;;28.25;27.50;;;;;19.61;48.68;98587.50;4889798;28;102128;-79
2021/09/11 01:16:45;;;;;;;;;27.25;25.00;;;;;19.59;48.69;98590.47;4889677;28;105254;-79
2021/09/11 01:19:12;;;;;;;;;23.00;22.00;;;;;19.58;48.69;98594.34;4883327;28;104059;-79
2021/09/11 01:21:40;;;;;;;;;27.50;26.25;;;;;19.54;48.54;98587.69;4900527;28;102624;-79
2021/09/11 01:24:07;;;;;;;;;27.50;26.75;;;;;19.55;48.38;98586.59;4882550;28;102182;-79
2021/09/11 01:26:35;;;;;;;;;27.75;26.50;;;;;19.55;48.54;98594.00;4879896;28;104498;-79
2021/09/11 01:29:02;;;;;;;;;28.75;26.50;;;;;19.51;48.57;98587.38;4895257;28;104957;-79
2021/09/11 01:31:33;;;;;;;;;31.75;28.00;;;;;19.50;48.29;98600.28;4891123;28;102288;-79
2021/09/11 01:34:00;;;;;;;;;25.25;24.50;;;;;19.49;48.21;98592.31;4885575;28;102652;-79
2021/09/11 01:36:31;;;;;;;;;26.50;24.00;;;;;19.50;48.46;98604.91;4872727;28;102124;-79
2021/09/11 01:38:58;;;;;;;;;27.00;25.50;;;;;19.46;48.38;98599.13;4878308;28;104148;-79
2021/09/11 01:41:25;;;;;;;;;27.00;26.25;;;;;19.47;47.86;98595.31;4890488;28;102977;-79
2021/09/11 01:43:52;;;;;;;;;27.75;27.25;;;;;19.44;48.56;98601.31;4899265;28;102891;-79
2021/09/11 01:46:19;;;;;;;;;31.75;29.50;;;;;19.42;47.69;98591.66;4894600;28;102250;-79
2021/09/11 01:48:46;;;;;;;;;26.00;24.50;;;;;19.41;48.24;98596.28;4877029;28;104864;-79
2021/09/11 01:51:13;;;;;;;;;29.25;27.50;;;;;19.39;48.14;98595.75;4884089;28;102689;-79
2021/09/11 01:53:40;;;;;;;;;27.25;24.50;;;;;19.40;48.12;98597.41;4874455;28;102630;-79
2021/09/11 01:56:07;;;;;;;;;31.00;28.25;;;;;19.41;47.86;98595.47;4897328;28;102791;-79
2021/09/11 01:58:34;;;;;;;;;23.50;19.50;;;;;19.36;47.71;98590.75;4891899;28;103841;-79
2021/09/11 02:01:01;;;;;;;;;27.75;25.75;;;;;19.33;47.54;98582.22;4881633;28;102802;-78
2021/09/11 02:03:29;;;;;;;;;27.75;24.25;;;;;19.34;47.72;98590.19;4893233;28;102274;-79
2021/09/11 02:05:56;;;;;;;;;25.75;24.00;;;;;19.35;48.01;98591.88;4874668;28;102630;-79
2021/09/11 02:08:23;;;;;;;;;27.00;25.00;;;;;19.33;47.47;98594.03;4894089;28;104062;-79
2021/09/11 02:10:50;;;;;;;;;25.25;25.00;;;;;19.30;47.60;98600.03;4894217;28;102244;-79
2021/09/11 02:13:17;;;;;;;;;24.00;22.25;;;;;19.30;47.52;98596.47;4888244;28;102584;-79
2021/09/11 02:15:44;;;;;;;;;26.50;24.75;;;;;19.29;47.47;98603.03;4888309;28;102634;-79
2021/09/11 02:18:11;;;;;;;;;24.25;22.50;;;;;19.28;47.36;98595.88;4891884;28;104070;-79
2021/09/11 02:20:38;;;;;;;;;23.75;22.75;;;;;19.29;47.71;98594.78;4884257;28;102338;-79
2021/09/11 02:23:05;;;;;;;;;28.50;26.25;;;;;19.26;47.25;98603.53;4893096;28;102222;-79
2021/09/11 02:25:32;;;;;;;;;25.00;22.25;;;;;19.25;47.18;98599.97;4900934;28;105532;-79
2021/09/11 02:27:59;;;;;;;;;25.75;23.00;;;;;19.25;47.27;98599.97;4879250;28;104218;-79
2021/09/11 02:30:26;;;;;;;;;25.25;22.50;;;;;19.22;47.19;98597.75;4880862;28;104032;-79
2021/09/11 02:32:53;;;;;;;;;28.75;26.50;;;;;19.23;47.29;98595.84;4882864;28;102600;-79
2021/09/11 02:35:20;;;;;;;;;28.50;24.75;;;;;19.20;47.15;98588.94;4885963;28;102182;-79
2021/09/11 02:37:47;;;;;;;;;27.25;26.75;;;;;19.19;46.98;98592.75;4892908;28;104076;-79
2021/09/11 02:40:14;;;;;;;;;27.25;24.00;;;;;19.18;47.16;98582.91;4888377;28;104366;-79
2021/09/11 02:42:41;;;;;;;;;16.75;16.00;;;;;19.16;46.87;98585.06;4889377;28;102903;-79
2021/09/11 02:45:09;;;;;;;;;28.50;24.75;;;;;19.15;47.02;98597.09;4898903;28;102746;-79
2021/09/11 02:47:36;;;;;;;;;25.00;22.50;;;;;19.13;46.67;98585.59;4883009;28;104028;-79
2021/09/11 02:50:03;;;;;;;;;26.50;25.75;;;;;19.14;46.59;98589.97;4887995;28;105705;-79
2021/09/11 02:52:30;;;;;;;;;27.50;24.75;;;;;19.12;46.68;98592.16;4898012;28;104096;-79
2021/09/11 02:54:57;;;;;;;;;28.75;26.75;;;;;19.09;47.18;98587.19;4892112;28;102222;-79
2021/09/11 02:57:24;;;;;;;;;25.00;22.75;;;;;19.08;46.89;98585.53;4886990;28;104341;-79
2021/09/11 02:59:52;;;;;;;;;24.25;23.75;;;;;19.07;46.88;98589.34;4891806;28;102234;-79
2021/09/11 03:02:18;;;;;;;;;26.50;24.50;;;;;19.07;46.35;98589.34;4891329;28;104060;-79
2021/09/11 03:04:46;;;;;;;;;28.25;24.75;;;;;19.07;46.29;98589.34;4877393;28;105256;-79
2021/09/11 03:07:13;;;;;;;;;27.25;25.75;;;;;19.05;46.72;98592.31;4896566;28;103962;-79
2021/09/11 03:09:40;;;;;;;;;25.50;23.00;;;;;19.04;46.33;98590.69;4885694;28;102597;-79
2021/09/11 03:12:08;;;;;;;;;24.00;23.25;;;;;19.02;46.44;98594.75;4888460;28;102596;-79
2021/09/11 03:14:35;;;;;;;;;23.75;22.50;;;;;19.01;46.14;98588.44;4897090;28;102230;-79
2021/09/11 03:17:02;;;;;;;;;29.25;26.50;;;;;18.99;46.39;98592.53;4890064;28;104077;-79
2021/09/11 03:19:29;;;;;;;;;24.25;22.25;;;;;18.97;46.72;98589.22;4881668;28;102976;-79
2021/09/11 03:21:57;;;;;;;;;26.50;23.00;;;;;18.98;46.04;98588.13;4897054;28;102448;-79
2021/09/11 03:24:24;;;;;;;;;25.50;23.00;;;;;18.97;45.95;98594.69;4881428;28;105549;-79
2021/09/11 03:26:51;;;;;;;;;22.00;21.75;;;;;18.94;46.34;98590.56;4892113;28;109444;-79
2021/09/11 03:29:18;;;;;;;;;25.00;22.75;;;;;18.95;45.98;98589.50;4888925;28;102592;-79
2021/09/11 03:31:45;;;;;;;;;23.00;22.50;;;;;18.94;46.36;98584.25;4885382;28;102294;-79
2021/09/11 03:34:12;;;;;;;;;24.50;22.50;;;;;18.94;45.97;98587.00;4884792;28;102465;-79
2021/09/11 03:36:39;;;;;;;;;27.00;24.75;;;;;18.91;45.71;98579.28;4883582;28;104072;-79
2021/09/11 03:39:06;;;;;;;;;25.00;22.50;;;;;18.91;45.90;98579.28;4874541;28;104719;-79
2021/09/11 03:41:33;;;;;;;;;26.75;25.00;;;;;18.90;45.38;98577.63;4881825;28;102593;-79
2021/09/11 03:44:00;;;;;;;;;23.25;21.75;;;;;18.88;45.62;98582.53;4892498;28;102607;-79
2021/09/11 03:46:27;;;;;;;;;24.50;22.75;;;;;18.88;45.57;98579.78;4887585;28;104109;-79
2021/09/11 03:48:54;;;;;;;;;23.25;20.50;;;;;18.85;45.69;98575.66;4882836;28;107054;-79
2021/09/11 03:51:21;;;;;;;;;23.25;21.50;;;;;18.84;46.00;98570.41;4888156;28;110071;-79
2021/09/11 03:53:48;;;;;;;;;21.00;20.75;;;;;18.83;45.76;98576.97;4890001;28;104496;-79
2021/09/11 03:56:15;;;;;;;;;23.00;21.75;;;;;18.83;45.64;98576.97;4892906;28;103798;-78
2021/09/11 03:58:42;;;;;;;;;19.00;19.00;;;;;18.80;45.29;98577.50;4890636;28;102468;-79
2021/09/11 04:01:09;;;;;;;;;20.75;19.50;;;;;18.81;45.29;98576.41;4887878;28;102445;-79
2021/09/11 04:03:36;;;;;;;;;26.75;22.50;;;;;18.79;45.44;98568.44;4899017;28;102539;-79
2021/09/11 04:06:04;;;;;;;;;20.50;19.75;;;;;18.76;45.28;98577.19;4880343;28;104052;-79
2021/09/11 04:08:31;;;;;;;;;20.75;20.00;;;;;18.76;45.10;98576.34;4883591;28;102816;-79
2021/09/11 04:10:59;;;;;;;;;24.00;21.25;;;;;18.75;45.13;98570.03;4891056;28;102120;-79
2021/09/11 04:13:26;;;;;;;;;21.50;21.50;;;;;18.73;45.13;98576.88;4890200;28;110464;-79
2021/09/11 04:15:53;;;;;;;;;28.00;24.00;;;;;18.70;45.21;98579.00;4892923;28;108772;-79
2021/09/11 04:18:20;;;;;;;;;21.75;21.00;;;;;18.70;45.55;98579.00;4887070;28;102182;-79
2021/09/11 04:20:47;;;;;;;;;24.00;21.75;;;;;18.66;44.87;98577.03;4890173;28;102674;-79
2021/09/11 04:23:14;;;;;;;;;20.75;20.25;;;;;18.66;45.27;98583.34;4888327;28;102415;-79
2021/09/11 04:25:41;;;;;;;;;24.00;22.50;;;;;18.65;45.03;98573.47;4883905;28;104489;-79
2021/09/11 04:28:08;;;;;;;;;23.75;21.00;;;;;18.64;45.33;98574.53;4887448;28;102695;-79
2021/09/11 04:30:35;;;;;;;;;21.50;20.50;;;;;18.62;45.04;98579.47;4889805;28;102681;-79
2021/09/11 04:33:02;;;;;;;;;24.75;21.50;;;;;18.59;44.84;98570.94;4886568;28;102674;-79
2021/09/11 04:35:30;;;;;;;;;21.75;21.00;;;;;18.59;44.75;98571.75;4889640;28;104052;-79
2021/09/11 04:37:57;;;;;;;;;22.75;21.25;;;;;18.59;44.86;98574.50;4898657;28;102458;-79
2021/09/11 04:40:24;;;;;;;;;24.00;23.00;;;;;18.56;44.61;98576.88;4895278;28;102232;-79
2021/09/11 04:42:54;;;;;;;;;24.00;21.00;;;;;18.55;44.71;98576.06;4889878;28;102291;-79
2021/09/11 04:45:21;;;;;;;;;24.00;22.25;;;;;18.54;44.42;98585.38;4884599;28;104230;-79
2021/09/11 04:47:48;;;;;;;;;23.75;21.75;;;;;18.53;44.71;98589.19;4888341;28;104014;-79
2021/09/11 04:50:15;;;;;;;;;22.00;20.75;;;;;18.51;44.59;98585.84;4894268;28;102164;-79
2021/09/11 04:52:42;;;;;;;;;20.00;18.75;;;;;18.50;44.55;98583.38;4902692;28;102697;-79
2021/09/11 04:55:10;;;;;;;;;26.50;22.00;;;;;18.48;44.07;98583.59;4892122;28;103832;-79
2021/09/11 04:57:37;;;;;;;;;20.25;19.50;;;;;18.50;44.11;98588.84;4882199;28;104854;-79
2021/09/11 05:00:05;;;;;;;;;23.25;19.75;;;;;18.46;44.24;98599.44;4899672;28;102688;-78
2021/09/11 05:02:32;;;;;;;;;23.00;21.25;;;;;18.46;43.88;98599.44;4877927;28;102540;-79
2021/09/11 05:04:59;;;;;;;;;23.50;21.75;;;;;18.45;43.82;98595.06;4886826;28;103794;-79
2021/09/11 05:07:26;;;;;;;;;23.75;21.00;;;;;18.44;44.41;98596.16;4908331;28;102434;-79
2021/09/11 05:09:53;;;;;;;;;21.50;21.25;;;;;18.43;44.31;98602.69;4885072;28;102558;-79
2021/09/11 05:12:20;;;;;;;;;20.75;20.25;;;;;18.41;44.77;98596.66;4897661;28;102525;-79
2021/09/11 05:14:47;;;;;;;;;23.00;21.75;;;;;18.40;43.96;98599.63;4884635;28;104021;-79
2021/09/11 05:17:14;;;;;;;;;22.50;21.50;;;;;18.37;43.83;98598.22;4895220;28;102371;-79
2021/09/11 05:19:41;;;;;;;;;20.00;18.50;;;;;18.35;43.81;98597.66;4892194;28;102208;-79
2021/09/11 05:22:08;;;;;;;;;23.25;20.25;;;;;18.36;44.01;98602.06;4901177;28;102306;-79
2021/09/11 05:24:35;;;;;;;;;23.00;22.75;;;;;18.36;43.71;98604.78;4892523;28;104017;-79
2021/09/11 05:27:03;;;;;;;;;26.00;23.50;;;;;18.35;44.21;98605.03;4891454;28;102193;-79
2021/09/11 05:29:30;;;;;;;;;23.25;21.00;;;;;18.33;43.94;98605.28;4897375;28;104144;-79
2021/09/11 05:31:57;;;;;;;;;21.75;20.25;;;;;18.31;43.86;98607.44;4896150;28;102563;-79
2021/09/11 05:34:24;;;;;;;;;21.25;20.50;;;;;18.30;43.86;98605.78;4889737;28;108965;-79
2021/09/11 05:36:51;;;;;;;;;24.00;19.75;;;;;18.29;44.07;98599.47;4886201;28;102720;-79
2021/09/11 05:39:18;;;;;;;;;24.75;22.75;;;;;18.28;43.88;98602.50;4888323;28;102763;-79
2021/09/11 05:41:45;;;;;;;;;21.50;19.75;;;;;18.28;43.89;98603.28;4886990;28;102656;-79
2021/09/11 05:44:12;;;;;;;;;20.00;19.00;;;;;18.29;43.92;98609.59;4881763;28;104691;-79
2021/09/11 05:46:39;;;;;;;;;19.75;18.00;;;;;18.29;43.27;98609.59;4895347;28;102466;-79
2021/09/11 05:49:07;;;;;;;;;23.25;21.75;;;;;18.26;43.94;98602.72;4886399;28;103406;-79
2021/09/11 05:51:34;;;;;;;;;21.25;19.00;;;;;18.26;44.03;98607.38;4890623;28;102408;-79
2021/09/11 05:54:01;;;;;;;;;22.00;20.50;;;;;18.25;43.39;98608.44;4882559;28;104470;-79
2021/09/11 05:56:28;;;;;;;;;19.00;17.75;;;;;18.26;44.15;98610.09;4890347;28;102333;-79
2021/09/11 05:58:55;;;;;;;;;20.25;19.75;;;;;18.26;44.09;98610.09;4892082;28;103399;-79
2021/09/11 06:01:22;;;;;;;;;22.75;21.25;;;;;18.24;44.20;98606.78;4893510;28;102414;-79
2021/09/11 06:03:49;;;;;;;;;19.75;19.00;;;;;18.23;43.28;98611.44;4893361;28;104085;-79
2021/09/11 06:06:16;;;;;;;;;21.00;20.00;;;;;18.24;44.10;98618.56;4890278;28;102465;-79
2021/09/11 06:08:43;;;;;;;;;23.00;21.00;;;;;18.22;43.90;98614.44;4890253;28;102172;-79
2021/09/11 06:11:10;;;;;;;;;21.25;19.75;;;;;18.23;43.74;98616.09;4888749;28;102411;-79
2021/09/11 06:13:38;;;;;;;;;22.25;22.25;;;;;18.24;44.50;98613.09;4889047;28;103924;-79
2021/09/11 06:16:08;;;;;;;;;23.50;20.25;;;;;18.22;43.48;98612.53;4888959;28;102368;-79
2021/09/11 06:18:35;;;;;;;;;21.00;20.25;;;;;18.23;44.47;98605.16;4889438;28;102207;-79
2021/09/11 06:21:02;;;;;;;;;22.00;20.00;;;;;18.21;44.48;98604.56;4887563;28;102724;-79
2021/09/11 06:41:57;;;;;;;;;18.00;18.00;;;;;18.24;44.04;98618.56;4889458;28;102281;-78
2021/09/11 06:44:49;;;;;;;;;20.75;18.75;;;;;18.25;45.06;98624.88;4886749;28;106841;-78
2021/09/11 06:48:00;;;;;;;;;18.75;17.75;;;;;18.27;44.73;98622.72;4874689;28;102671;-78
2021/09/11 06:51:07;;;;;;;;;21.00;18.75;;;;;18.26;44.61;98621.06;4881302;28;108952;-79
2021/09/11 06:53:34;;;;;;;;;19.75;18.75;;;;;18.25;44.84;98619.38;4882021;28;102442;-79
2021/09/11 06:56:20;;;;;;;;;17.75;17.00;;;;;18.23;44.95;98616.94;4874562;28;102384;-78
2021/09/11 06:58:47;;;;;;;;;17.25;15.25;;;;;18.26;45.32;98630.09;4891369;28;102571;-78
2021/09/11 07:01:14;;;;;;;;;21.75;18.50;;;;;18.25;45.28;98627.59;4894909;28;104096;-78
2021/09/11 07:03:42;;;;;;;;;19.00;18.00;;;;;18.23;45.61;98625.13;4882226;28;102473;-78
2021/09/11 07:06:13;;;;;;;;;19.50;17.50;;;;;18.27;45.50;98622.72;4888297;28;105127;-78
2021/09/11 07:08:40;;;;;;;;;17.50;16.50;;;;;18.28;44.91;98618.91;4888974;28;102272;-79
2021/09/11 07:11:13;;;;;;;;;17.00;14.75;;;;;18.31;45.66;98623.03;4889328;28;104388;-79
2021/09/11 07:13:41;;;;;;;;;16.75;16.25;;;;;18.30;45.88;98624.94;4895321;28;103000;-79
2021/09/11 07:16:08;;;;;;;;;16.50;14.50;;;;;18.32;45.49;98625.53;4896423;28;102489;-78
2021/09/11 07:18:35;;;;;;;;;13.00;12.75;;;;;18.34;45.74;98623.38;4888359;28;102413;-79
2021/09/11 07:21:03;;;;;;;;;18.25;16.75;;;;;18.34;45.54;98622.53;4887228;28;103821;-78
2021/09/11 07:23:30;;;;;;;;;18.00;15.00;;;;;18.35;46.08;98625.03;4898769;28;103152;-79
2021/09/11 07:25:57;;;;;;;;;14.50;13.75;;;;;18.38;45.90;98630.00;4895627;28;102235;-79
2021/09/11 07:28:24;;;;;;;;;13.75;13.75;;;;;18.39;46.31;98628.94;4899308;28;103594;-79
2021/09/11 07:30:51;;;;;;;;;13.25;13.00;;;;;18.40;45.83;98632.50;4882145;28;104086;-79
2021/09/11 07:33:18;;;;;;;;;16.00;14.00;;;;;18.41;46.02;98632.25;4882189;28;106610;-79
2021/09/11 07:35:45;;;;;;;;;16.00;14.50;;;;;18.43;46.63;98631.97;4895107;28;102622;-79
2021/09/11 07:38:14;;;;;;;;;15.50;14.00;;;;;18.44;46.21;98639.97;4881116;28;102440;-79
2021/09/11 07:40:44;;;;;;;;;14.00;13.00;;;;;18.44;46.78;98642.69;4888220;28;103959;-79
2021/09/11 07:43:11;;;;;;;;;15.00;13.25;;;;;18.45;46.16;98647.09;4899360;28;102465;-79
2021/09/11 07:45:38;;;;;;;;;16.00;13.50;;;;;18.47;46.38;98650.41;4885629;28;102654;-79
2021/09/11 07:48:06;;;;;;;;;16.25;15.25;;;;;18.47;46.52;98635.88;4889224;28;102441;-79
2021/09/11 07:50:35;;;;;;;;;16.25;14.50;;;;;18.49;46.57;98631.00;4887364;28;105092;-79
2021/09/11 07:53:03;;;;;;;;;13.75;11.75;;;;;18.51;46.72;98643.34;4877320;28;102600;-79
2021/09/11 07:55:31;;;;;;;;;14.25;12.50;;;;;18.54;46.76;98645.63;4879451;28;103135;-79
2021/09/11 07:57:58;;;;;;;;;13.00;13.00;;;;;18.56;46.60;98648.09;4894114;28;102238;-79
2021/09/11 08:00:25;;;;;;;;;13.50;13.00;;;;;18.55;47.27;98641.78;4886401;28;109188;-79
2021/09/11 08:02:54;;;;;;;;;15.50;13.00;;;;;18.58;46.40;98633.09;4886432;28;102186;-79
2021/09/11 08:05:22;;;;;;;;;14.00;12.50;;;;;18.58;46.64;98638.56;4895403;28;102486;-79
2021/09/11 08:07:49;;;;;;;;;15.25;13.75;;;;;18.59;46.94;98640.22;4889682;28;102661;-79
2021/09/11 08:10:17;;;;;;;;;14.75;14.75;;;;;18.60;46.68;98641.03;4887615;28;104155;-79
2021/09/11 08:12:44;;;;;;;;;10.00;9.75;;;;;18.60;46.93;98639.13;4903491;28;104923;-79
2021/09/11 08:15:12;;;;;;;;;12.25;12.25;;;;;18.62;46.90;98642.44;4885843;28;102250;-79
2021/09/11 08:17:39;;;;;;;;;14.50;13.50;;;;;18.65;46.75;98635.63;4891105;28;110811;-78
2021/09/11 08:20:06;;;;;;;;;15.25;13.00;;;;;18.65;47.11;98638.38;4881449;28;104244;-79
2021/09/11 08:22:33;;;;;;;;;14.25;12.50;;;;;18.67;47.17;98638.97;4885412;28;102455;-79
2021/09/11 08:25:00;;;;;;;;;12.75;11.00;;;;;18.70;47.51;98630.22;4892545;28;102207;-79
2021/09/11 08:27:27;;;;;;;;;14.75;12.50;;;;;18.71;46.65;98635.47;4895555;28;102305;-80
2021/09/11 08:29:55;;;;;;;;;14.25;13.00;;;;;18.77;47.72;98630.91;4884590;28;108982;-84
2021/09/11 08:32:22;;;;;;;;;13.00;13.00;;;;;18.83;48.67;98623.53;4891163;28;102428;-84
2021/09/11 08:34:52;;;;;;;;;13.25;12.25;;;;;18.87;48.98;98627.44;4877203;28;102645;-82
2021/09/11 08:37:19;;;;;;;;;12.25;11.25;;;;;18.91;49.82;98623.94;4876180;28;103698;-79
2021/09/11 08:39:47;;;;;;;;;12.25;12.25;;;;;18.96;49.83;98625.91;4878394;28;103717;-79
2021/09/11 08:42:14;;;;;;;;;10.75;10.75;;;;;19.00;50.43;98632.56;4891369;28;102721;-79
2021/09/11 08:44:41;;;;;;;;;12.00;11.25;;;;;19.02;50.26;98630.38;4888960;28;102520;-79
2021/09/11 08:47:08;;;;;;;;;9.50;9.50;;;;;19.07;51.48;98624.97;4895992;28;103291;-79
2021/09/11 08:49:35;;;;;;;;;11.75;10.75;;;;;19.07;51.54;98622.22;4878335;28;104045;-79
2021/09/11 08:52:08;;;;;;;;;15.00;12.50;;;;;19.11;51.27;98631.59;4894025;28;102603;-79
2021/09/11 08:54:36;;;;;;;;;11.50;11.50;;;;;19.13;51.84;98621.22;4896159;28;102387;-80
2021/09/11 08:57:24;;;;;;;;;10.00;9.75;;;;;19.18;51.85;98621.28;4876536;28;102338;-79
2021/09/11 08:59:53;;;;;;;;;11.00;10.00;;;;;19.23;51.81;98620.53;4880302;28;104103;-79
2021/09/11 09:02:23;;;;;;;;;8.67;8.67;;;;;19.27;51.96;98621.66;4903630;28;102571;-79
2021/09/11 09:04:52;;;;;;;;;10.67;9.67;;;;;19.29;51.97;98612.06;4900442;28;102528;-79
2021/09/11 09:07:29;;;;;;;;;9.33;9.33;;;;;19.33;51.84;98618.69;4895382;28;102237;-81
2021/09/11 09:10:16;;;;;;;;;9.67;9.33;;;;;19.38;51.91;98612.44;4901161;28;108936;-81
2021/09/11 09:12:45;;;;;;;;;9.00;8.33;;;;;19.42;51.50;98617.16;4885831;28;102678;-82
2021/09/11 09:15:14;;;;;;;;;9.00;9.00;;;;;19.43;51.37;98610.63;4886007;28;102775;-81
2021/09/11 09:17:50;;;;;;;;;10.00;9.00;;;;;19.45;51.26;98608.44;4891085;28;102737;-81
2021/09/11 09:20:28;;;;;;;;;8.00;8.00;;;;;19.49;51.29;98608.78;4897341;28;103212;-81
2021/09/11 09:22:58;;;;;;;;;12.00;11.00;;;;;19.50;51.08;98605.75;4881955;28;102686;-81
2021/09/11 09:25:32;;;;;;;;;9.67;8.33;;;;;19.55;51.30;98599.50;4892235;28;103846;-81
2021/09/11 09:28:03;;;;;;;;;7.33;7.00;;;;;19.58;51.17;98605.31;4891787;28;102760;-81
2021/09/11 09:30:41;;;;;;;;;9.00;9.00;;;;;19.62;51.05;98608.34;4886474;28;108718;-81
2021/09/11 09:33:12;;;;;;;;;8.00;8.00;;;;;19.65;50.78;98604.25;4885062;28;103274;-81
2021/09/11 09:35:39;;;;;;;;;8.33;8.33;;;;;19.68;50.79;98590.84;4881862;28;102123;-81
2021/09/11 09:38:08;;;;;;;;;9.67;9.00;;;;;19.74;51.33;98603.53;4888492;28;102658;-82
2021/09/11 09:40:45;;;;;;;;;7.00;7.00;;;;;19.77;50.94;98600.25;4883020;28;104080;-80
2021/09/11 09:43:29;;;;;;;;;8.33;8.00;;;;;19.84;51.17;98605.53;4896445;28;103317;-81
2021/09/11 09:46:08;;;;;;;;;7.00;6.67;;;;;19.86;51.24;98604.19;4876875;28;103664;-81
2021/09/11 09:48:36;;;;;;;;;10.00;10.00;;;;;19.89;50.95;98597.38;4883289;28;104892;-81
2021/09/11 09:51:07;;;;;;;;;9.00;7.00;;;;;19.93;51.33;98593.00;4896074;28;104190;-81
2021/09/11 09:53:39;;;;;;;;;9.00;8.00;;;;;19.94;51.21;98591.91;4889774;28;103211;-81
2021/09/11 09:56:06;;;;;;;;;8.67;8.00;;;;;19.99;50.82;98591.97;4896691;28;102115;-81
2021/09/11 09:58:33;;;;;;;;;8.33;7.33;;;;;20.05;51.27;98593.63;4898706;28;102320;-81
2021/09/11 10:01:01;;;;;;;;;8.67;7.67;;;;;20.07;50.96;98593.38;4889909;28;104042;-80
2021/09/11 10:03:28;;;;;;;;;9.00;8.33;;;;;20.11;50.89;98589.84;4888422;28;102421;-81
2021/09/11 10:06:17;;;;;;;;;8.00;7.00;;;;;20.15;50.50;98590.97;4895528;28;102467;-81
2021/09/11 10:09:14;;;;;;;;;10.33;9.00;;;;;20.19;50.78;98589.38;4883767;28;102574;-81
2021/09/11 10:11:50;;;;;;;;;9.33;8.67;;;;;20.23;50.34;98587.75;4898262;28;108657;-81
2021/09/11 10:14:19;;;;;;;;;8.00;7.33;;;;;20.27;51.22;98586.13;4884691;28;102814;-80
2021/09/11 10:17:16;;;;;;;;;8.67;7.00;;;;;20.31;50.96;98590.03;4868705;28;103522;-81
2021/09/11 10:19:46;;;;;;;;;6.67;5.67;;;;;20.35;50.48;98587.59;4880659;28;102488;-81
2021/09/11 10:22:14;;;;;;;;;8.33;8.00;;;;;20.39;49.79;98592.31;4867851;28;103209;-81
2021/09/11 10:24:41;;;;;;;;;5.67;5.67;;;;;20.42;49.79;98594.50;4892775;28;106200;-81
2021/09/11 10:27:11;;;;;;;;;7.67;7.00;;;;;20.47;49.31;98593.72;4887774;28;102944;-81
2021/09/11 10:29:40;;;;;;;;;5.67;4.67;;;;;20.49;50.07;98592.34;4898650;28;102176;-80
2021/09/11 10:32:11;;;;;;;;;6.33;5.67;;;;;20.52;49.69;98592.91;4898162;28;104052;-81
2021/09/11 10:35:02;;;;;;;;;7.00;6.67;;;;;20.58;49.20;98578.13;4886988;28;102363;-81
2021/09/11 10:37:45;;;;;;;;;4.67;4.67;;;;;20.62;48.84;98588.31;4888736;28;102207;-80
2021/09/11 10:40:32;;;;;;;;;4.33;4.33;;;;;20.66;49.41;98583.94;4892217;28;103186;-81
2021/09/11 10:43:09;;;;;;;;;6.00;5.33;;;;;20.69;48.79;98588.06;4883847;28;109129;-80
2021/09/11 10:45:43;;;;;;;;;4.00;4.00;;;;;20.73;48.45;98580.94;4883164;28;102826;-80
2021/09/11 10:48:29;;;;;;;;;4.00;4.00;;;;;20.77;47.98;98587.56;4892017;28;103401;-80
2021/09/11 10:50:56;;;;;;;;;4.67;4.67;;;;;20.80;47.76;98589.78;4895216;28;102900;-80
2021/09/11 10:53:24;;;;;;;;;5.67;4.67;;;;;20.83;48.25;98584.56;4881811;28;104055;-80
2021/09/11 10:55:52;;;;;;;;;4.00;4.00;;;;;20.89;48.39;98590.94;4889730;28;109720;-80
2021/09/11 10:58:32;;;;;;;;;6.33;4.67;;;;;20.94;47.37;98582.69;4861917;28;102238;-80
2021/09/11 11:01:00;;;;;;;;;5.00;5.00;;;;;20.97;47.89;98584.09;4895818;28;102616;-80
2021/09/11 11:03:29;;;;;;;;;5.33;5.33;;;;;20.99;47.49;98574.47;4897072;28;108892;-81
2021/09/11 11:06:01;;;;;;;;;5.00;5.00;;;;;21.03;47.37;98572.81;4897005;28;102646;-81
2021/09/11 11:08:29;;;;;;;;;4.67;4.67;;;;;21.04;47.40;98571.72;4890488;28;102386;-81
2021/09/11 11:10:56;;;;;;;;;4.50;4.00;;;;;21.07;47.23;98571.22;4889582;28;102336;-81
2021/09/11 11:13:24;;;;;;;;;3.67;3.67;;;;;21.19;46.69;98571.00;4891237;28;104293;-81
2021/09/11 11:15:56;;;;;;;;;3.67;3.67;;;;;21.23;47.42;98570.19;4890254;28;102175;-81
2021/09/11 11:18:27;;;;;;;;;5.67;5.67;;;;;21.27;47.58;98571.28;4893527;28;102612;-81
2021/09/11 11:20:54;;;;;;;;;3.67;3.67;;;;;21.30;47.17;98564.41;4894077;28;102384;-81
2021/09/11 11:23:21;;;;;;;;;4.33;3.67;;;;;21.34;46.67;98562.81;4889458;28;104344;-81
2021/09/11 11:25:50;;;;;;;;;3.67;3.67;;;;;21.37;46.73;98559.50;4894494;28;102565;-82
2021/09/11 11:28:21;;;;;;;;;4.00;4.00;;;;;21.39;46.11;98557.28;4896671;28;106225;-81
2021/09/11 11:30:51;;;;;;;;;4.67;4.67;;;;;21.46;44.96;98554.28;4896970;28;102566;-81
2021/09/11 11:33:19;;;;;;;;;5.00;4.00;;;;;21.50;44.57;98555.41;4904309;28;104024;-81
2021/09/11 11:35:46;;;;;;;;;5.00;4.00;;;;;21.51;45.10;98546.88;4899616;28;103339;-82
2021/09/11 11:38:15;;;;;;;;;6.00;5.00;;;;;21.56;45.23;98557.06;4897049;28;102654;-81